Aérodrome :
LOGIN :

S'inscrire | Disclaimer

   EN    FR    IT 

 










Légende :    VFR   VFR Marginal   IFR   IFR Intensif   IFR Très Intensif
Visi : 
Plafond : 
>= 8 km
>= 3000ft
5 à 8 km
1000 à 3000 ft
1500m à 5 km
500 à 1000 ft
800 à 1500m
200 à 500 ft
< 800m
< 200 ft
Symboles :   Orages  Brouillard  Fortes neiges  Fortes précipitations  Vent > 20 kt
SIGMETs :   Divers  Orages  Givrage  Turbulence  Onde Orograph.  Cendres Volcan.






- Altitude de l'aérodrome : 74 ft
- Code IATA : EIN


EHEH - Eindhoven

DERNIER METAR :
  • 150425Z AUTO 21016KT 180V250 6000 +DZ FEW008 SCT015CB BKN020 09/08 Q0990 WHT

METARs EXPIRÉS :
  • 150412Z AUTO 20015KT 9999 FEW011 SCT013 FEW015CB BKN016 09/08 Q0990 GRN
  • 150355Z AUTO 19012KT 9999 -RADZ FEW015CB SCT023 BKN026 08/07 Q0990 RERA REDZ WHT
  • 150346Z AUTO 19013KT 150V210 9999 -RA FEW015CB BKN021 BKN025 08/07 Q0990 WHT
  • 150330Z AUTO 18013KT 9999 +DZRA FEW015CB SCT026 BKN030 08/07 Q0991 BLU
  • 150325Z AUTO 19013KT 160V220 9999 DZRA FEW015CB SCT019 BKN022 OVC027 08/07 Q0991 WHT
  • 150308Z AUTO 19011KT 150V220 9999 DZ FEW008 FEW015CB SCT020 BKN023 08/07 Q0991 WHT
  • 150255Z AUTO 19012KT 9999 FEW009 SCT010 BKN013 08/07 Q0991 REDZ GRN
  • 150237Z AUTO 19011KT 150V230 8000 DZ FEW006 SCT007 BKN009 07/06 Q0992 GRN
  • 150235Z AUTO 18010KT 150V220 8000 DZ SCT006 BKN007 BKN009 07/06 Q0992 YLO
  • 150225Z AUTO 19010KT 160V220 6000 DZ FEW007 SCT008 BKN009 07/06 Q0992 GRN
  • 150155Z AUTO 18012G22KT 160V220 9999 BKN015 OVC019 08/05 Q0993 WHT
  • 150144Z AUTO 17011KT 150V210 9999 BKN021 BKN026 BKN031 07/04 Q0993 WHT
  • 150125Z AUTO 17011KT 150V210 9999 FEW045 BKN053 OVC060 07/04 Q0993 BLU

TAF TAF EHEH
Valide du 15 à 00h jusqu'au 16 à 06h UTC


142332Z 1500/1606 21012KT 9999 FEW040
TEMPO 1503/1507 24017G35KT SCT012 BKN015 OVC030
PROB40
TEMPO 1503/1506 25017G40KT 4000 TSRAGS SCT008 SCT015CB BKN020
PROB30
TEMPO 1516/1518 FEW020CB BKN025



MET'MAP, la Météo Aéronautique d'un coup d'oeil ! - Copyright ORBIFLY Décembre 2007 - Disclaimer

ORBIFLY MET'MAP TEAM :

Programmation & Développement : Alexandra Zaïnal
Sur une idée originale de : Baudouin d'Aumeries
Assistance à la programmation : Marc-Olivier Méhu
Soutien technique & logistique : Manuel Goepfert

Contact : metmap@orbifly.com




SOURCES & CREDITS :

   NOAA